sensor_id;sensor_type;location;lat;lon;timestamp;pressure;altitude;pressure_sealevel;temperature;humidity
56831;BME280;42713;42.676;23.352;2023-02-04T00:01:24;94592.72;;;2.03;70.74
56831;BME280;42713;42.676;23.352;2023-02-04T00:03:49;94585.97;;;2.02;71.20
56831;BME280;42713;42.676;23.352;2023-02-04T00:06:16;94590.91;;;1.97;71.35
56831;BME280;42713;42.676;23.352;2023-02-04T00:08:42;94583.38;;;1.95;72.09
56831;BME280;42713;42.676;23.352;2023-02-04T00:11:07;94577.97;;;1.90;71.90
56831;BME280;42713;42.676;23.352;2023-02-04T00:13:32;94570.22;;;1.90;71.92
56831;BME280;42713;42.676;23.352;2023-02-04T00:15:58;94565.91;;;1.62;73.05
56831;BME280;42713;42.676;23.352;2023-02-04T00:18:24;94553.19;;;1.61;73.16
56831;BME280;42713;42.676;23.352;2023-02-04T00:20:49;94554.78;;;1.62;73.29
56831;BME280;42713;42.676;23.352;2023-02-04T00:23:14;94556.16;;;1.58;73.50
56831;BME280;42713;42.676;23.352;2023-02-04T00:25:40;94564.50;;;1.60;73.79
56831;BME280;42713;42.676;23.352;2023-02-04T00:28:05;94551.75;;;1.51;73.84
56831;BME280;42713;42.676;23.352;2023-02-04T00:30:31;94567.25;;;1.58;73.51
56831;BME280;42713;42.676;23.352;2023-02-04T00:32:57;94545.00;;;1.57;73.75
56831;BME280;42713;42.676;23.352;2023-02-04T00:35:23;94547.03;;;1.62;73.46
56831;BME280;42713;42.676;23.352;2023-02-04T00:37:49;94546.84;;;1.63;73.50
56831;BME280;42713;42.676;23.352;2023-02-04T00:40:15;94547.47;;;1.65;73.42
56831;BME280;42713;42.676;23.352;2023-02-04T00:42:41;94548.66;;;1.69;73.13
56831;BME280;42713;42.676;23.352;2023-02-04T00:45:07;94548.50;;;1.71;73.52
56831;BME280;42713;42.676;23.352;2023-02-04T00:47:33;94547.47;;;1.72;73.26
56831;BME280;42713;42.676;23.352;2023-02-04T00:49:59;94543.31;;;1.71;72.88
56831;BME280;42713;42.676;23.352;2023-02-04T00:52:25;94541.72;;;1.70;72.74
56831;BME280;42713;42.676;23.352;2023-02-04T00:54:50;94529.84;;;1.76;73.00
56831;BME280;42713;42.676;23.352;2023-02-04T00:57:15;94536.41;;;1.78;72.82
56831;BME280;42713;42.676;23.352;2023-02-04T00:59:41;94521.31;;;1.82;72.91
56831;BME280;42713;42.676;23.352;2023-02-04T01:02:07;94528.88;;;1.83;73.14
56831;BME280;42713;42.676;23.352;2023-02-04T01:04:32;94521.94;;;1.84;73.25
56831;BME280;42713;42.676;23.352;2023-02-04T01:06:58;94507.22;;;1.84;72.57
56831;BME280;42713;42.676;23.352;2023-02-04T01:09:23;94505.00;;;1.81;72.75
56831;BME280;42713;42.676;23.352;2023-02-04T01:11:50;94497.28;;;1.88;72.69
56831;BME280;42713;42.676;23.352;2023-02-04T01:14:16;94498.47;;;1.85;73.00
56831;BME280;42713;42.676;23.352;2023-02-04T01:16:41;94489.75;;;1.86;72.79
56831;BME280;42713;42.676;23.352;2023-02-04T01:19:07;94490.97;;;1.91;72.58
56831;BME280;42713;42.676;23.352;2023-02-04T01:21:32;94486.97;;;1.88;72.76
56831;BME280;42713;42.676;23.352;2023-02-04T01:23:58;94487.38;;;1.92;72.81
56831;BME280;42713;42.676;23.352;2023-02-04T01:26:24;94481.22;;;1.93;72.38
56831;BME280;42713;42.676;23.352;2023-02-04T01:28:49;94473.28;;;1.94;72.63
56831;BME280;42713;42.676;23.352;2023-02-04T01:31:15;94465.16;;;1.91;72.50
56831;BME280;42713;42.676;23.352;2023-02-04T01:33:40;94464.13;;;1.92;72.76
56831;BME280;42713;42.676;23.352;2023-02-04T01:36:06;94468.13;;;1.94;72.83
56831;BME280;42713;42.676;23.352;2023-02-04T01:38:32;94462.16;;;1.94;72.84
56831;BME280;42713;42.676;23.352;2023-02-04T01:40:58;94462.16;;;1.94;72.52
56831;BME280;42713;42.676;23.352;2023-02-04T01:43:24;94452.03;;;1.92;73.33
56831;BME280;42713;42.676;23.352;2023-02-04T01:45:50;94441.09;;;1.90;72.90
56831;BME280;42713;42.676;23.352;2023-02-04T01:48:16;94450.06;;;1.94;72.77
56831;BME280;42713;42.676;23.352;2023-02-04T01:51:04;94446.28;;;1.97;72.49
56831;BME280;42713;42.676;23.352;2023-02-04T01:53:30;94433.34;;;1.97;72.63
56831;BME280;42713;42.676;23.352;2023-02-04T01:55:56;94433.75;;;1.94;72.64
56831;BME280;42713;42.676;23.352;2023-02-04T01:58:22;94442.47;;;1.93;72.56
56831;BME280;42713;42.676;23.352;2023-02-04T02:00:47;94435.13;;;1.96;73.16
56831;BME280;42713;42.676;23.352;2023-02-04T02:03:13;94423.81;;;1.91;72.93
56831;BME280;42713;42.676;23.352;2023-02-04T02:05:52;94431.38;;;1.92;72.38
56831;BME280;42713;42.676;23.352;2023-02-04T02:08:19;94424.19;;;1.88;73.00
56831;BME280;42713;42.676;23.352;2023-02-04T02:10:46;94428.56;;;1.87;72.97
56831;BME280;42713;42.676;23.352;2023-02-04T02:13:15;94437.13;;;1.88;72.68
56831;BME280;42713;42.676;23.352;2023-02-04T02:15:41;94433.13;;;1.92;72.76
56831;BME280;42713;42.676;23.352;2023-02-04T02:18:08;94422.81;;;1.92;72.36
56831;BME280;42713;42.676;23.352;2023-02-04T02:20:35;94409.88;;;1.92;72.59
56831;BME280;42713;42.676;23.352;2023-02-04T02:23:09;94409.88;;;1.92;72.63
56831;BME280;42713;42.676;23.352;2023-02-04T02:25:37;94403.72;;;1.93;72.33
56831;BME280;42713;42.676;23.352;2023-02-04T02:28:18;94401.34;;;1.91;72.16
56831;BME280;42713;42.676;23.352;2023-02-04T02:30:46;94386.06;;;1.90;72.30
56831;BME280;42713;42.676;23.352;2023-02-04T02:33:14;94379.50;;;1.94;71.87
56831;BME280;42713;42.676;23.352;2023-02-04T02:35:41;94371.75;;;1.94;72.10
56831;BME280;42713;42.676;23.352;2023-02-04T02:38:10;94350.09;;;1.95;72.00
56831;BME280;42713;42.676;23.352;2023-02-04T02:40:36;94348.13;;;1.97;71.36
56831;BME280;42713;42.676;23.352;2023-02-04T02:43:03;94338.56;;;1.97;71.83
56831;BME280;42713;42.676;23.352;2023-02-04T02:45:30;94332.63;;;1.97;71.48
56831;BME280;42713;42.676;23.352;2023-02-04T02:47:57;94324.88;;;1.97;71.29
56831;BME280;42713;42.676;23.352;2023-02-04T02:50:25;94337.78;;;1.97;71.26
56831;BME280;42713;42.676;23.352;2023-02-04T02:52:52;94346.75;;;1.94;71.32
56831;BME280;42713;42.676;23.352;2023-02-04T02:55:19;94329.81;;;1.92;71.09
56831;BME280;42713;42.676;23.352;2023-02-04T02:57:47;94328.25;;;1.91;70.95
56831;BME280;42713;42.676;23.352;2023-02-04T03:00:18;94330.25;;;1.89;71.03
56831;BME280;42713;42.676;23.352;2023-02-04T03:02:53;94341.16;;;1.84;71.12
56831;BME280;42713;42.676;23.352;2023-02-04T03:05:19;94341.94;;;1.84;71.02
56831;BME280;42713;42.676;23.352;2023-02-04T03:07:44;94341.16;;;1.84;71.13
56831;BME280;42713;42.676;23.352;2023-02-04T03:10:10;94331.03;;;1.76;71.60
56831;BME280;42713;42.676;23.352;2023-02-04T03:12:36;94341.75;;;1.79;71.44
56831;BME280;42713;42.676;23.352;2023-02-04T03:15:03;94347.50;;;1.81;71.91
56831;BME280;42713;42.676;23.352;2023-02-04T03:17:29;94348.50;;;1.80;71.68
56831;BME280;42713;42.676;23.352;2023-02-04T03:19:55;94354.25;;;1.82;71.90
56831;BME280;42713;42.676;23.352;2023-02-04T03:22:20;94344.13;;;1.81;71.45
56831;BME280;42713;42.676;23.352;2023-02-04T03:24:46;94345.34;;;1.85;71.68
56831;BME280;42713;42.676;23.352;2023-02-04T03:27:13;94321.28;;;1.84;71.21
56831;BME280;42713;42.676;23.352;2023-02-04T03:29:45;94324.69;;;1.85;71.31
56831;BME280;42713;42.676;23.352;2023-02-04T03:32:11;94324.69;;;1.85;71.40
56831;BME280;42713;42.676;23.352;2023-02-04T03:34:36;94321.28;;;1.84;71.24
56831;BME280;42713;42.676;23.352;2023-02-04T03:37:02;94327.66;;;1.89;70.70
56831;BME280;42713;42.676;23.352;2023-02-04T03:39:27;94330.41;;;1.87;70.61
56831;BME280;42713;42.676;23.352;2023-02-04T03:41:53;94318.31;;;1.88;70.90
56831;BME280;42713;42.676;23.352;2023-02-04T03:44:18;94318.09;;;1.89;70.58
56831;BME280;42713;42.676;23.352;2023-02-04T03:46:45;94321.09;;;1.93;70.70
56831;BME280;42713;42.676;23.352;2023-02-04T03:49:10;94314.94;;;1.94;70.39
56831;BME280;42713;42.676;23.352;2023-02-04T03:51:36;94311.97;;;1.97;70.45
56831;BME280;42713;42.676;23.352;2023-02-04T03:54:01;94302.44;;;1.91;70.59
56831;BME280;42713;42.676;23.352;2023-02-04T03:56:27;94306.41;;;1.93;70.17
56831;BME280;42713;42.676;23.352;2023-02-04T03:58:52;94288.94;;;1.95;70.30
56831;BME280;42713;42.676;23.352;2023-02-04T04:01:17;94278.38;;;1.97;70.62
56831;BME280;42713;42.676;23.352;2023-02-04T04:03:43;94274.38;;;2.01;70.31
56831;BME280;42713;42.676;23.352;2023-02-04T04:06:08;94277.56;;;2.03;70.48
56831;BME280;42713;42.676;23.352;2023-02-04T04:08:36;94273.41;;;2.02;69.98
56831;BME280;42713;42.676;23.352;2023-02-04T04:11:01;94257.13;;;2.01;69.74
56831;BME280;42713;42.676;23.352;2023-02-04T04:13:27;94250.16;;;2.02;70.31
56831;BME280;42713;42.676;23.352;2023-02-04T04:15:52;94261.91;;;2.05;70.29
56831;BME280;42713;42.676;23.352;2023-02-04T04:18:18;94252.56;;;2.04;70.63
56831;BME280;42713;42.676;23.352;2023-02-04T04:20:43;94252.75;;;2.02;70.09
56831;BME280;42713;42.676;23.352;2023-02-04T04:23:09;94242.41;;;2.02;70.13
56831;BME280;42713;42.676;23.352;2023-02-04T04:25:34;94254.31;;;2.03;70.21
56831;BME280;42713;42.676;23.352;2023-02-04T04:28:02;94255.91;;;2.04;70.25
56831;BME280;42713;42.676;23.352;2023-02-04T04:30:27;94263.06;;;2.02;70.61
56831;BME280;42713;42.676;23.352;2023-02-04T04:32:53;94262.50;;;2.00;70.93
56831;BME280;42713;42.676;23.352;2023-02-04T04:35:18;94264.06;;;2.01;70.81
56831;BME280;42713;42.676;23.352;2023-02-04T04:37:44;94271.03;;;2.00;70.90
56831;BME280;42713;42.676;23.352;2023-02-04T04:40:12;94279.38;;;2.02;70.97
56831;BME280;42713;42.676;23.352;2023-02-04T04:42:38;94267.84;;;1.98;70.67
56831;BME280;42713;42.676;23.352;2023-02-04T04:45:08;94276.19;;;1.94;70.84
56831;BME280;42713;42.676;23.352;2023-02-04T04:47:34;94279.59;;;1.94;71.42
56831;BME280;42713;42.676;23.352;2023-02-04T04:49:59;94278.38;;;1.90;71.40
56831;BME280;42713;42.676;23.352;2023-02-04T04:52:25;94291.09;;;1.85;72.15
56831;BME280;42713;42.676;23.352;2023-02-04T04:54:50;94281.34;;;1.87;72.05
56831;BME280;42713;42.676;23.352;2023-02-04T04:57:16;94286.72;;;1.85;72.35
56831;BME280;42713;42.676;23.352;2023-02-04T04:59:41;94285.34;;;1.90;72.25
56831;BME280;42713;42.676;23.352;2023-02-04T05:02:07;94293.50;;;1.93;72.19
56831;BME280;42713;42.676;23.352;2023-02-04T05:04:32;94281.19;;;1.95;71.91
56831;BME280;42713;42.676;23.352;2023-02-04T05:06:58;94298.66;;;2.00;72.14
56831;BME280;42713;42.676;23.352;2023-02-04T05:09:23;94294.47;;;1.99;71.87
56831;BME280;42713;42.676;23.352;2023-02-04T05:11:49;94281.75;;;1.97;72.79
56831;BME280;42713;42.676;23.352;2023-02-04T05:14:14;94295.09;;;1.94;72.78
56831;BME280;42713;42.676;23.352;2023-02-04T05:16:39;94294.09;;;1.89;73.63
56831;BME280;42713;42.676;23.352;2023-02-04T05:19:05;94298.03;;;1.84;73.95
56831;BME280;42713;42.676;23.352;2023-02-04T05:21:30;94313.91;;;1.81;74.58
56831;BME280;42713;42.676;23.352;2023-02-04T05:23:56;94313.13;;;1.81;74.35
56831;BME280;42713;42.676;23.352;2023-02-04T05:26:21;94312.34;;;1.87;74.68
56831;BME280;42713;42.676;23.352;2023-02-04T05:28:47;94321.50;;;1.90;74.96
56831;BME280;42713;42.676;23.352;2023-02-04T05:31:12;94325.84;;;1.89;75.21
56831;BME280;42713;42.676;23.352;2023-02-04T05:33:37;94330.25;;;1.89;74.83
56831;BME280;42713;42.676;23.352;2023-02-04T05:36:03;94335.78;;;1.85;75.43
56831;BME280;42713;42.676;23.352;2023-02-04T05:38:28;94345.16;;;1.93;74.36
56831;BME280;42713;42.676;23.352;2023-02-04T05:40:54;94354.47;;;1.94;73.93
56831;BME280;42713;42.676;23.352;2023-02-04T05:43:19;94340.38;;;1.90;74.57
56831;BME280;42713;42.676;23.352;2023-02-04T05:45:45;94357.06;;;1.94;74.53
56831;BME280;42713;42.676;23.352;2023-02-04T05:48:10;94370.56;;;1.96;74.42
56831;BME280;42713;42.676;23.352;2023-02-04T05:50:42;94336.41;;;1.94;74.12
56831;BME280;42713;42.676;23.352;2023-02-04T05:53:07;94345.31;;;1.92;73.21
56831;BME280;42713;42.676;23.352;2023-02-04T05:55:33;94321.31;;;1.98;72.50
56831;BME280;42713;42.676;23.352;2023-02-04T05:57:59;94337.78;;;1.97;72.95
56831;BME280;42713;42.676;23.352;2023-02-04T06:00:25;94314.94;;;2.00;71.84
56831;BME280;42713;42.676;23.352;2023-02-04T06:02:51;94323.66;;;1.93;71.85
56831;BME280;42713;42.676;23.352;2023-02-04T06:05:16;94330.84;;;1.91;71.48
56831;BME280;42713;42.676;23.352;2023-02-04T06:07:42;94319.91;;;1.95;71.61
56831;BME280;42713;42.676;23.352;2023-02-04T06:10:09;94317.72;;;1.99;71.05
56831;BME280;42713;42.676;23.352;2023-02-04T06:12:35;94333.22;;;1.99;70.37
56831;BME280;42713;42.676;23.352;2023-02-04T06:15:00;94317.53;;;2.00;71.07
56831;BME280;42713;42.676;23.352;2023-02-04T06:17:26;94345.13;;;2.07;71.25
56831;BME280;42713;42.676;23.352;2023-02-04T06:19:51;94354.28;;;2.02;70.68
56831;BME280;42713;42.676;23.352;2023-02-04T06:22:16;94335.00;;;2.05;70.26
56831;BME280;42713;42.676;23.352;2023-02-04T06:24:43;94332.03;;;2.08;69.88
56831;BME280;42713;42.676;23.352;2023-02-04T06:27:09;94340.56;;;2.09;70.10
56831;BME280;42713;42.676;23.352;2023-02-04T06:29:34;94340.19;;;2.12;69.51
56831;BME280;42713;42.676;23.352;2023-02-04T06:32:00;94332.81;;;2.15;68.97
56831;BME280;42713;42.676;23.352;2023-02-04T06:34:25;94329.03;;;2.18;69.09
56831;BME280;42713;42.676;23.352;2023-02-04T06:36:51;94332.22;;;2.20;68.41
56831;BME280;42713;42.676;23.352;2023-02-04T06:39:16;94326.66;;;2.23;68.51
56831;BME280;42713;42.676;23.352;2023-02-04T06:41:41;94308.59;;;2.23;68.30
56831;BME280;42713;42.676;23.352;2023-02-04T06:44:07;94329.44;;;2.22;68.29
56831;BME280;42713;42.676;23.352;2023-02-04T06:46:32;94328.66;;;2.28;67.76
56831;BME280;42713;42.676;23.352;2023-02-04T06:48:58;94338.19;;;2.27;67.74
56831;BME280;42713;42.676;23.352;2023-02-04T06:51:23;94348.72;;;2.32;67.63
56831;BME280;42713;42.676;23.352;2023-02-04T06:53:49;94340.16;;;2.32;67.72
56831;BME280;42713;42.676;23.352;2023-02-04T06:56:15;94332.41;;;2.39;66.66
56831;BME280;42713;42.676;23.352;2023-02-04T06:58:40;94322.69;;;2.41;66.14
56831;BME280;42713;42.676;23.352;2023-02-04T07:01:06;94333.41;;;2.44;65.87
56831;BME280;42713;42.676;23.352;2023-02-04T07:03:32;94318.09;;;2.43;66.16
56831;BME280;42713;42.676;23.352;2023-02-04T07:05:58;94308.53;;;2.57;65.15
56831;BME280;42713;42.676;23.352;2023-02-04T07:08:23;94317.47;;;2.61;65.29
56831;BME280;42713;42.676;23.352;2023-02-04T07:10:49;94305.72;;;2.65;64.83
56831;BME280;42713;42.676;23.352;2023-02-04T07:13:14;94321.84;;;2.74;64.75
56831;BME280;42713;42.676;23.352;2023-02-04T07:15:40;94313.25;;;2.73;64.57
56831;BME280;42713;42.676;23.352;2023-02-04T07:18:05;94316.44;;;2.82;64.46
56831;BME280;42713;42.676;23.352;2023-02-04T07:20:31;94314.84;;;2.81;64.57
56831;BME280;42713;42.676;23.352;2023-02-04T07:22:57;94303.66;;;2.87;64.32
56831;BME280;42713;42.676;23.352;2023-02-04T07:25:22;94313.41;;;2.92;64.62
56831;BME280;42713;42.676;23.352;2023-02-04T07:27:48;94288.72;;;2.96;64.10
56831;BME280;42713;42.676;23.352;2023-02-04T07:30:13;94294.28;;;3.00;64.03
56831;BME280;42713;42.676;23.352;2023-02-04T07:32:39;94314.53;;;3.09;63.74
56831;BME280;42713;42.676;23.352;2023-02-04T07:35:05;94298.44;;;3.07;63.73
56831;BME280;42713;42.676;23.352;2023-02-04T07:37:30;94297.59;;;3.14;63.50
56831;BME280;42713;42.676;23.352;2023-02-04T07:39:56;94294.78;;;3.22;64.02
56831;BME280;42713;42.676;23.352;2023-02-04T07:42:21;94297.31;;;3.35;63.07
56831;BME280;42713;42.676;23.352;2023-02-04T07:44:47;94309.38;;;3.48;62.36
56831;BME280;42713;42.676;23.352;2023-02-04T07:47:13;94310.59;;;3.46;62.09
56831;BME280;42713;42.676;23.352;2023-02-04T07:49:39;94333.72;;;3.40;62.44
56831;BME280;42713;42.676;23.352;2023-02-04T07:52:04;94311.97;;;3.48;62.12
56831;BME280;42713;42.676;23.352;2023-02-04T07:54:30;94294.47;;;3.43;62.52
56831;BME280;42713;42.676;23.352;2023-02-04T07:56:55;94297.44;;;3.47;61.84
56831;BME280;42713;42.676;23.352;2023-02-04T07:59:21;94327.63;;;3.60;62.02
56831;BME280;42713;42.676;23.352;2023-02-04T08:01:46;94294.59;;;3.55;61.86
56831;BME280;42713;42.676;23.352;2023-02-04T08:04:14;94293.97;;;3.60;62.28
56831;BME280;42713;42.676;23.352;2023-02-04T08:06:39;94306.72;;;3.62;61.83
56831;BME280;42713;42.676;23.352;2023-02-04T08:09:05;94324.28;;;3.60;61.74
56831;BME280;42713;42.676;23.352;2023-02-04T08:11:30;94342.44;;;3.53;61.78
56831;BME280;42713;42.676;23.352;2023-02-04T08:13:55;94342.03;;;3.49;62.05
56831;BME280;42713;42.676;23.352;2023-02-04T08:16:21;94365.59;;;3.41;62.31
56831;BME280;42713;42.676;23.352;2023-02-04T08:18:46;94301.69;;;3.35;62.58
56831;BME280;42713;42.676;23.352;2023-02-04T08:21:12;94302.91;;;3.32;62.95
56831;BME280;42713;42.676;23.352;2023-02-04T08:23:37;94301.53;;;3.30;63.00
56831;BME280;42713;42.676;23.352;2023-02-04T08:26:10;94303.66;;;3.39;63.62
56831;BME280;42713;42.676;23.352;2023-02-04T08:28:37;94300.69;;;3.36;63.22
56831;BME280;42713;42.676;23.352;2023-02-04T08:31:05;94316.59;;;3.39;63.85
56831;BME280;42713;42.676;23.352;2023-02-04T08:33:31;94306.47;;;3.31;63.68
56831;BME280;42713;42.676;23.352;2023-02-04T08:35:57;94292.13;;;3.35;63.95
56831;BME280;42713;42.676;23.352;2023-02-04T08:38:23;94293.66;;;3.43;63.70
56831;BME280;42713;42.676;23.352;2023-02-04T08:40:49;94300.44;;;3.44;64.23
56831;BME280;42713;42.676;23.352;2023-02-04T08:43:14;94302.66;;;3.40;63.54
56831;BME280;42713;42.676;23.352;2023-02-04T08:45:39;94293.09;;;3.41;63.69
56831;BME280;42713;42.676;23.352;2023-02-04T08:48:05;94291.25;;;3.48;63.52
56831;BME280;42713;42.676;23.352;2023-02-04T08:50:32;94299.41;;;3.52;63.57
56831;BME280;42713;42.676;23.352;2023-02-04T08:52:57;94302.03;;;3.45;64.18
56831;BME280;42713;42.676;23.352;2023-02-04T08:55:23;94296.47;;;3.41;64.62
56831;BME280;42713;42.676;23.352;2023-02-04T08:57:48;94288.56;;;3.36;65.08
56831;BME280;42713;42.676;23.352;2023-02-04T09:00:14;94292.28;;;3.40;65.65
56831;BME280;42713;42.676;23.352;2023-02-04T09:02:42;94296.31;;;3.36;65.92
56831;BME280;42713;42.676;23.352;2023-02-04T09:05:09;94297.47;;;3.40;65.92
56831;BME280;42713;42.676;23.352;2023-02-04T09:07:34;94292.09;;;3.42;66.02
56831;BME280;42713;42.676;23.352;2023-02-04T09:10:00;94288.94;;;3.40;65.97
56831;BME280;42713;42.676;23.352;2023-02-04T09:12:25;94299.66;;;3.43;65.48
56831;BME280;42713;42.676;23.352;2023-02-04T09:14:51;94278.00;;;3.31;65.73
56831;BME280;42713;42.676;23.352;2023-02-04T09:17:16;94288.19;;;3.33;65.46
56831;BME280;42713;42.676;23.352;2023-02-04T09:19:43;94277.00;;;3.32;65.61
56831;BME280;42713;42.676;23.352;2023-02-04T09:22:09;94285.72;;;3.45;64.70
56831;BME280;42713;42.676;23.352;2023-02-04T09:24:34;94290.25;;;3.49;64.62
56831;BME280;42713;42.676;23.352;2023-02-04T09:27:00;94273.50;;;3.52;63.88
56831;BME280;42713;42.676;23.352;2023-02-04T09:29:26;94275.06;;;3.60;62.96
56831;BME280;42713;42.676;23.352;2023-02-04T09:31:51;94269.88;;;3.60;62.69
56831;BME280;42713;42.676;23.352;2023-02-04T09:34:17;94277.19;;;3.69;63.01
56831;BME280;42713;42.676;23.352;2023-02-04T09:36:44;94274.19;;;3.72;63.09
56831;BME280;42713;42.676;23.352;2023-02-04T09:39:09;94286.41;;;3.58;64.72
56831;BME280;42713;42.676;23.352;2023-02-04T09:41:39;94300.41;;;3.51;66.19
56831;BME280;42713;42.676;23.352;2023-02-04T09:44:11;94265.53;;;3.53;67.57
56831;BME280;42713;42.676;23.352;2023-02-04T09:46:38;94274.53;;;3.44;67.79
56831;BME280;42713;42.676;23.352;2023-02-04T09:49:04;94264.41;;;3.42;68.30
56831;BME280;42713;42.676;23.352;2023-02-04T09:51:32;94258.81;;;3.46;68.24
56831;BME280;42713;42.676;23.352;2023-02-04T09:54:08;94272.75;;;3.45;68.56
56831;BME280;42713;42.676;23.352;2023-02-04T09:56:35;94262.28;;;3.33;70.01
56831;BME280;42713;42.676;23.352;2023-02-04T09:59:03;94256.78;;;3.22;70.99
56831;BME280;42713;42.676;23.352;2023-02-04T10:01:29;94259.88;;;3.31;70.90
56831;BME280;42713;42.676;23.352;2023-02-04T10:03:57;94254.13;;;3.29;70.94
56831;BME280;42713;42.676;23.352;2023-02-04T10:06:25;94248.94;;;3.29;71.67
56831;BME280;42713;42.676;23.352;2023-02-04T10:08:51;94241.41;;;3.27;71.09
56831;BME280;42713;42.676;23.352;2023-02-04T10:11:19;94236.81;;;3.30;71.08
56831;BME280;42713;42.676;23.352;2023-02-04T10:13:50;94243.13;;;3.34;71.32
56831;BME280;42713;42.676;23.352;2023-02-04T10:16:38;94242.00;;;3.30;70.40
56831;BME280;42713;42.676;23.352;2023-02-04T10:19:12;94232.03;;;3.26;71.29
56831;BME280;42713;42.676;23.352;2023-02-04T10:21:39;94246.75;;;3.33;71.88
56831;BME280;42713;42.676;23.352;2023-02-04T10:24:27;94256.63;;;3.42;71.57
56831;BME280;42713;42.676;23.352;2023-02-04T10:27:08;94228.56;;;3.39;71.57
56831;BME280;42713;42.676;23.352;2023-02-04T10:29:35;94219.81;;;3.40;71.64
56831;BME280;42713;42.676;23.352;2023-02-04T10:32:00;94219.03;;;3.40;71.28
56831;BME280;42713;42.676;23.352;2023-02-04T10:34:37;94218.66;;;3.36;71.32
56831;BME280;42713;42.676;23.352;2023-02-04T10:37:20;94221.66;;;3.33;71.03
56831;BME280;42713;42.676;23.352;2023-02-04T10:39:47;94227.41;;;3.35;71.44
56831;BME280;42713;42.676;23.352;2023-02-04T10:42:27;94228.22;;;3.29;72.42
56831;BME280;42713;42.676;23.352;2023-02-04T10:44:53;94239.19;;;3.31;72.94
56831;BME280;42713;42.676;23.352;2023-02-04T10:47:21;94211.34;;;3.26;74.67
56831;BME280;42713;42.676;23.352;2023-02-04T10:52:35;94230.53;;;3.44;74.90
56831;BME280;42713;42.676;23.352;2023-02-04T10:55:03;94237.06;;;3.21;75.70
56831;BME280;42713;42.676;23.352;2023-02-04T10:57:30;94198.25;;;3.21;75.83
56831;BME280;42713;42.676;23.352;2023-02-04T11:00:00;94199.84;;;3.22;77.00
56831;BME280;42713;42.676;23.352;2023-02-04T11:05:29;94210.75;;;3.24;76.31
56831;BME280;42713;42.676;23.352;2023-02-04T11:07:56;94200.72;;;3.35;77.31
56831;BME280;42713;42.676;23.352;2023-02-04T11:10:24;94191.78;;;3.37;76.41
56831;BME280;42713;42.676;23.352;2023-02-04T11:18:24;94218.84;;;3.35;73.92
56831;BME280;42713;42.676;23.352;2023-02-04T11:20:53;94175.13;;;3.20;75.05
56831;BME280;42713;42.676;23.352;2023-02-04T11:26:06;94179.50;;;3.26;74.83
56831;BME280;42713;42.676;23.352;2023-02-04T11:28:48;94186.19;;;3.34;75.20
56831;BME280;42713;42.676;23.352;2023-02-04T11:33:47;94193.03;;;3.53;74.11
56831;BME280;42713;42.676;23.352;2023-02-04T11:36:13;94174.66;;;3.62;74.15
56831;BME280;42713;42.676;23.352;2023-02-04T11:38:48;94180.72;;;3.74;74.48
56831;BME280;42713;42.676;23.352;2023-02-04T11:41:26;94200.69;;;3.67;72.44
56831;BME280;42713;42.676;23.352;2023-02-04T11:43:54;94190.25;;;3.55;73.32
56831;BME280;42713;42.676;23.352;2023-02-04T11:46:22;94192.28;;;3.46;73.88
56831;BME280;42713;42.676;23.352;2023-02-04T11:49:13;94197.41;;;3.53;74.48
56831;BME280;42713;42.676;23.352;2023-02-04T11:51:41;94204.00;;;3.49;75.27
56831;BME280;42713;42.676;23.352;2023-02-04T11:54:09;94196.34;;;3.35;75.02
56831;BME280;42713;42.676;23.352;2023-02-04T11:56:35;94204.94;;;3.29;74.16
56831;BME280;42713;42.676;23.352;2023-02-04T11:59:01;94186.66;;;3.24;75.71
56831;BME280;42713;42.676;23.352;2023-02-04T12:01:31;94193.31;;;3.38;75.08
56831;BME280;42713;42.676;23.352;2023-02-04T12:04:01;94191.31;;;3.40;75.49
56831;BME280;42713;42.676;23.352;2023-02-04T12:06:33;94177.97;;;3.43;74.78
56831;BME280;42713;42.676;23.352;2023-02-04T12:09:13;94196.72;;;3.39;75.64
56831;BME280;42713;42.676;23.352;2023-02-04T12:11:55;94171.25;;;3.36;76.19
56831;BME280;42713;42.676;23.352;2023-02-04T12:14:21;94181.81;;;3.34;76.17
56831;BME280;42713;42.676;23.352;2023-02-04T12:16:52;94187.69;;;3.48;77.25
56831;BME280;42713;42.676;23.352;2023-02-04T12:19:17;94175.66;;;3.35;76.69
56831;BME280;42713;42.676;23.352;2023-02-04T12:21:43;94177.16;;;3.18;76.60
56831;BME280;42713;42.676;23.352;2023-02-04T12:24:09;94195.06;;;3.19;77.98
56831;BME280;42713;42.676;23.352;2023-02-04T12:26:34;94183.91;;;3.19;78.59
56831;BME280;42713;42.676;23.352;2023-02-04T12:29:00;94191.03;;;3.23;79.28
56831;BME280;42713;42.676;23.352;2023-02-04T12:31:28;94166.59;;;3.19;79.12
56831;BME280;42713;42.676;23.352;2023-02-04T12:33:54;94168.00;;;3.15;78.90
56831;BME280;42713;42.676;23.352;2023-02-04T12:36:20;94168.50;;;2.99;80.18
56831;BME280;42713;42.676;23.352;2023-02-04T12:38:45;94169.28;;;2.99;79.93
56831;BME280;42713;42.676;23.352;2023-02-04T12:41:12;94166.88;;;3.04;79.92
56831;BME280;42713;42.676;23.352;2023-02-04T12:43:38;94168.63;;;3.10;79.08
56831;BME280;42713;42.676;23.352;2023-02-04T12:46:03;94164.28;;;3.11;78.32
56831;BME280;42713;42.676;23.352;2023-02-04T12:48:29;94167.22;;;3.15;78.21
56831;BME280;42713;42.676;23.352;2023-02-04T12:50:54;94162.63;;;3.17;79.09
56831;BME280;42713;42.676;23.352;2023-02-04T12:53:21;94168.59;;;3.17;77.04
56831;BME280;42713;42.676;23.352;2023-02-04T12:55:47;94166.00;;;3.17;76.65
56831;BME280;42713;42.676;23.352;2023-02-04T12:58:12;94155.28;;;3.14;74.87
56831;BME280;42713;42.676;23.352;2023-02-04T13:00:38;94168.22;;;3.14;74.10
56831;BME280;42713;42.676;23.352;2023-02-04T13:03:03;94170.22;;;3.11;74.33
56831;BME280;42713;42.676;23.352;2023-02-04T13:05:29;94176.00;;;3.14;74.33
56831;BME280;42713;42.676;23.352;2023-02-04T13:07:55;94198.88;;;3.17;74.41
56831;BME280;42713;42.676;23.352;2023-02-04T13:10:22;94187.94;;;3.15;73.10
56831;BME280;42713;42.676;23.352;2023-02-04T13:12:49;94155.28;;;3.14;73.91
56831;BME280;42713;42.676;23.352;2023-02-04T13:15:14;94167.25;;;3.08;74.06